Time;durP1;ratioP1;P1;durP2;ratioP2;P2;SDS_P1;SDS_P2;PMS_P1;PMS_P2;Temp;Humidity;BMP_temperature;BMP_pressure;BME280_temperature;BME280_humidity;BME280_pressure;Samples;Min_cycle;Max_cycle;Signal;HPM_P1;HPM_P2
2022/12/02 00:00:20;;;;;;;19.85;9.07;;;;;;;;;;5031103;28;20033;-88
2022/12/02 00:02:46;;;;;;;23.77;8.25;;;;;;;;;;5030217;28;20029;-85
2022/12/02 00:05:14;;;;;;;15.38;8.10;;;;;;;;;;5030746;28;20025;-84
2022/12/02 00:07:41;;;;;;;18.15;7.95;;;;;;;;;;5035090;28;20109;-86
2022/12/02 00:10:28;;;;;;;17.98;9.13;;;;;;;;;;5024106;28;20033;-87
2022/12/02 00:12:55;;;;;;;19.25;9.75;;;;;;;;;;5031174;28;20094;-88
2022/12/02 00:15:36;;;;;;;19.98;10.52;;;;;;;;;;5027752;28;20051;-87
2022/12/02 00:18:03;;;;;;;18.95;8.75;;;;;;;;;;5022010;28;20048;-88
2022/12/02 00:20:28;;;;;;;19.80;9.40;;;;;;;;;;5025620;28;20091;-84
2022/12/02 00:22:54;;;;;;;14.77;8.63;;;;;;;;;;5025383;28;20029;-85
2022/12/02 00:25:19;;;;;;;19.05;9.13;;;;;;;;;;5025517;28;20097;-84
2022/12/02 00:27:44;;;;;;;17.98;8.25;;;;;;;;;;5025302;28;20029;-85
2022/12/02 00:30:10;;;;;;;22.60;8.80;;;;;;;;;;5029398;28;20108;-82
2022/12/02 00:32:36;;;;;;;18.33;8.73;;;;;;;;;;5022944;28;20051;-87
2022/12/02 00:35:01;;;;;;;18.45;8.88;;;;;;;;;;5027116;28;20032;-85
2022/12/02 00:37:26;;;;;;;17.98;8.52;;;;;;;;;;5009030;28;20362;-87
2022/12/02 00:39:52;;;;;;;28.30;9.90;;;;;;;;;;5007938;28;20033;-88
2022/12/02 00:42:17;;;;;;;24.40;9.65;;;;;;;;;;5024878;28;21083;-82
2022/12/02 00:47:26;;;;;;;18.90;8.88;;;;;;;;;;5029093;28;20391;-83
2022/12/02 00:49:52;;;;;;;17.17;8.20;;;;;;;;;;5021442;28;20037;-87
2022/12/02 00:52:17;;;;;;;17.65;9.68;;;;;;;;;;5020751;28;20040;-83
2022/12/02 00:54:42;;;;;;;19.27;8.52;;;;;;;;;;5022822;28;20151;-85
2022/12/02 00:57:08;;;;;;;20.92;8.75;;;;;;;;;;5023244;28;20143;-85
2022/12/02 00:59:33;;;;;;;15.88;8.35;;;;;;;;;;5025895;28;20120;-84
2022/12/02 01:01:59;;;;;;;19.75;8.93;;;;;;;;;;5012108;28;20134;-87
2022/12/02 01:04:27;;;;;;;22.67;10.48;;;;;;;;;;5039447;28;20049;-85
2022/12/02 01:06:52;;;;;;;19.23;8.48;;;;;;;;;;5031641;28;20025;-86
2022/12/02 01:09:17;;;;;;;20.58;9.70;;;;;;;;;;5030982;28;20078;-85
2022/12/02 01:11:43;;;;;;;23.98;8.32;;;;;;;;;;5031404;28;20033;-87
2022/12/02 01:14:08;;;;;;;22.58;10.00;;;;;;;;;;5026519;28;20021;-85
2022/12/02 01:16:34;;;;;;;17.52;7.18;;;;;;;;;;5025842;28;20036;-84
2022/12/02 01:18:59;;;;;;;20.17;9.52;;;;;;;;;;5030252;28;20040;-86
2022/12/02 01:21:24;;;;;;;18.85;8.90;;;;;;;;;;5032909;28;20509;-84
2022/12/02 01:23:50;;;;;;;28.58;9.77;;;;;;;;;;5035076;28;20510;-87
2022/12/02 01:26:15;;;;;;;14.65;8.45;;;;;;;;;;5030308;28;20025;-84
2022/12/02 01:28:40;;;;;;;19.00;8.50;;;;;;;;;;5033422;28;20036;-84
2022/12/02 01:31:06;;;;;;;21.27;10.10;;;;;;;;;;5029318;28;20039;-83
2022/12/02 01:33:33;;;;;;;15.23;8.02;;;;;;;;;;5032759;28;22859;-85
2022/12/02 01:36:02;;;;;;;15.68;8.70;;;;;;;;;;5035856;28;20017;-85
2022/12/02 01:38:27;;;;;;;16.50;7.63;;;;;;;;;;5033891;28;20113;-86
2022/12/02 01:40:53;;;;;;;23.75;8.43;;;;;;;;;;5034149;28;20135;-87
2022/12/02 01:43:18;;;;;;;18.08;8.93;;;;;;;;;;5035269;28;20131;-86
2022/12/02 01:45:44;;;;;;;18.92;9.10;;;;;;;;;;5029061;28;20057;-84
2022/12/02 01:48:10;;;;;;;18.92;8.88;;;;;;;;;;5016004;28;20025;-84
2022/12/02 01:50:35;;;;;;;24.75;9.20;;;;;;;;;;5035184;28;20036;-86
2022/12/02 01:53:01;;;;;;;14.50;7.28;;;;;;;;;;5048492;28;20119;-83
2022/12/02 01:55:28;;;;;;;18.83;8.77;;;;;;;;;;5062956;28;20482;-83
2022/12/02 01:57:54;;;;;;;20.63;9.57;;;;;;;;;;5047354;28;20029;-85
2022/12/02 02:00:20;;;;;;;18.90;8.65;;;;;;;;;;5043398;28;20525;-86
2022/12/02 02:02:46;;;;;;;21.70;9.50;;;;;;;;;;5033315;28;20033;-83
2022/12/02 02:05:37;;;;;;;22.00;9.07;;;;;;;;;;5051130;28;20021;-84
2022/12/02 02:08:05;;;;;;;16.67;8.53;;;;;;;;;;5041143;28;20033;-84
2022/12/02 02:10:31;;;;;;;21.80;8.95;;;;;;;;;;5058316;28;20024;-85
2022/12/02 02:12:58;;;;;;;20.35;8.45;;;;;;;;;;5050487;28;20044;-84
2022/12/02 02:15:24;;;;;;;14.55;7.72;;;;;;;;;;5049087;28;20043;-85
2022/12/02 02:17:50;;;;;;;18.45;8.30;;;;;;;;;;5051944;28;20418;-85
2022/12/02 02:20:21;;;;;;;17.15;8.38;;;;;;;;;;5045707;28;20030;-84
2022/12/02 02:22:52;;;;;;;17.33;8.40;;;;;;;;;;5037498;28;20112;-85
2022/12/02 02:25:17;;;;;;;19.47;9.00;;;;;;;;;;5034660;28;20060;-86
2022/12/02 02:27:49;;;;;;;18.65;8.40;;;;;;;;;;5036290;28;20049;-86
2022/12/02 02:30:15;;;;;;;19.40;9.57;;;;;;;;;;5035903;28;20025;-86
2022/12/02 02:32:40;;;;;;;20.08;8.73;;;;;;;;;;5041466;28;20071;-85
2022/12/02 02:35:06;;;;;;;18.55;9.25;;;;;;;;;;5042749;28;20017;-84
2022/12/02 02:37:31;;;;;;;15.50;8.73;;;;;;;;;;5041653;28;20037;-84
2022/12/02 02:39:57;;;;;;;19.98;8.88;;;;;;;;;;5018646;28;20045;-84
2022/12/02 02:42:23;;;;;;;18.90;9.50;;;;;;;;;;5038836;28;20020;-87
2022/12/02 02:44:48;;;;;;;15.15;8.05;;;;;;;;;;5041896;28;20025;-85
2022/12/02 02:47:14;;;;;;;17.42;8.07;;;;;;;;;;5038967;28;20034;-85
2022/12/02 02:49:39;;;;;;;16.90;8.05;;;;;;;;;;5042516;28;20571;-85
2022/12/02 02:52:05;;;;;;;17.75;9.10;;;;;;;;;;5017600;28;20056;-84
2022/12/02 02:54:30;;;;;;;20.08;9.00;;;;;;;;;;5040038;28;20028;-85
2022/12/02 02:56:55;;;;;;;20.58;8.77;;;;;;;;;;5025346;28;20079;-86
2022/12/02 02:59:20;;;;;;;20.17;9.00;;;;;;;;;;5040991;28;20066;-84
2022/12/02 03:01:50;;;;;;;13.65;6.82;;;;;;;;;;5034607;28;20032;-84
2022/12/02 03:04:18;;;;;;;15.57;7.88;;;;;;;;;;5040858;28;20048;-85
2022/12/02 03:06:44;;;;;;;16.90;8.68;;;;;;;;;;5040541;28;20112;-86
2022/12/02 03:09:13;;;;;;;14.48;8.02;;;;;;;;;;5045388;28;20032;-85
2022/12/02 03:11:40;;;;;;;18.08;8.20;;;;;;;;;;5040867;28;20382;-85
2022/12/02 03:14:07;;;;;;;16.40;8.20;;;;;;;;;;5039505;28;20105;-85
2022/12/02 03:16:33;;;;;;;18.80;7.85;;;;;;;;;;5042190;28;20024;-85
2022/12/02 03:18:59;;;;;;;21.88;9.40;;;;;;;;;;5040970;28;21264;-85
2022/12/02 03:21:25;;;;;;;22.90;8.75;;;;;;;;;;5034714;28;20022;-87
2022/12/02 03:23:54;;;;;;;15.77;8.38;;;;;;;;;;5041879;28;20021;-84
2022/12/02 03:26:19;;;;;;;23.20;9.02;;;;;;;;;;5039146;28;20024;-84
2022/12/02 03:28:46;;;;;;;15.65;8.00;;;;;;;;;;5026392;28;20017;-85
2022/12/02 03:31:12;;;;;;;22.27;9.48;;;;;;;;;;5019145;28;20086;-84
2022/12/02 03:33:39;;;;;;;21.27;9.60;;;;;;;;;;5041799;28;20021;-85
2022/12/02 03:36:05;;;;;;;23.25;9.90;;;;;;;;;;5036318;28;20174;-84
2022/12/02 03:38:31;;;;;;;15.73;7.82;;;;;;;;;;5050521;28;20025;-86
2022/12/02 03:40:57;;;;;;;18.85;9.27;;;;;;;;;;5039444;28;20116;-88
2022/12/02 03:43:23;;;;;;;20.73;10.23;;;;;;;;;;5022549;28;20166;-88
2022/12/02 03:45:48;;;;;;;15.43;8.13;;;;;;;;;;5040065;28;20108;-86
2022/12/02 03:48:20;;;;;;;17.33;7.82;;;;;;;;;;5036952;28;20017;-86
2022/12/02 03:50:45;;;;;;;21.02;9.02;;;;;;;;;;5041746;28;20017;-86
2022/12/02 03:53:11;;;;;;;23.45;9.85;;;;;;;;;;5041288;28;20028;-87
2022/12/02 03:55:36;;;;;;;23.10;10.07;;;;;;;;;;5040435;28;20037;-86
2022/12/02 03:58:06;;;;;;;18.60;9.07;;;;;;;;;;5039950;28;20163;-84
2022/12/02 04:00:32;;;;;;;20.15;7.82;;;;;;;;;;5042135;28;20025;-86
2022/12/02 04:02:58;;;;;;;23.85;9.32;;;;;;;;;;5021882;28;20081;-85
2022/12/02 04:05:23;;;;;;;19.52;9.80;;;;;;;;;;5036965;28;20108;-84
2022/12/02 04:07:48;;;;;;;15.32;8.10;;;;;;;;;;5041939;28;20016;-83
2022/12/02 04:10:14;;;;;;;18.35;8.35;;;;;;;;;;5037759;28;20020;-86
2022/12/02 04:12:39;;;;;;;17.95;8.50;;;;;;;;;;5044935;28;20036;-86
2022/12/02 04:15:06;;;;;;;15.70;8.43;;;;;;;;;;5056406;28;20025;-86
2022/12/02 04:17:31;;;;;;;15.57;8.77;;;;;;;;;;5044245;28;20029;-87
2022/12/02 04:19:56;;;;;;;18.40;9.63;;;;;;;;;;5044151;28;20090;-85
2022/12/02 04:22:22;;;;;;;17.40;8.07;;;;;;;;;;5042593;28;20028;-87
2022/12/02 04:24:47;;;;;;;16.23;7.97;;;;;;;;;;5047627;28;20047;-88
2022/12/02 04:27:12;;;;;;;15.93;7.57;;;;;;;;;;5054499;28;20019;-88
2022/12/02 04:29:38;;;;;;;21.02;8.73;;;;;;;;;;5070729;28;20028;-87
2022/12/02 04:32:03;;;;;;;19.05;8.65;;;;;;;;;;5073541;28;20021;-86
2022/12/02 04:34:29;;;;;;;14.73;8.45;;;;;;;;;;5074390;28;20017;-86
2022/12/02 04:36:54;;;;;;;24.70;8.52;;;;;;;;;;5073908;28;20040;-86
2022/12/02 04:39:19;;;;;;;22.80;7.38;;;;;;;;;;5059343;28;20040;-84
2022/12/02 04:41:45;;;;;;;17.48;8.07;;;;;;;;;;5058866;28;20028;-83
2022/12/02 04:44:10;;;;;;;18.02;7.05;;;;;;;;;;5054698;28;20366;-84
2022/12/02 04:46:35;;;;;;;16.30;8.32;;;;;;;;;;5038882;28;20025;-83
2022/12/02 04:49:01;;;;;;;21.23;8.55;;;;;;;;;;5049034;28;20023;-84
2022/12/02 04:51:26;;;;;;;19.42;8.98;;;;;;;;;;5054359;28;20382;-85
2022/12/02 04:53:51;;;;;;;18.67;7.72;;;;;;;;;;5054168;28;20060;-84
2022/12/02 04:56:17;;;;;;;20.23;8.50;;;;;;;;;;5050526;28;20061;-83
2022/12/02 04:58:42;;;;;;;23.77;9.68;;;;;;;;;;5036137;28;20024;-84
2022/12/02 05:01:07;;;;;;;19.30;8.88;;;;;;;;;;5054485;28;20029;-85
2022/12/02 05:03:33;;;;;;;19.00;9.05;;;;;;;;;;5050075;28;20031;-84
2022/12/02 05:05:58;;;;;;;17.10;8.52;;;;;;;;;;5054080;28;20044;-85
2022/12/02 05:08:23;;;;;;;18.52;8.57;;;;;;;;;;5054054;28;20021;-87
2022/12/02 05:10:49;;;;;;;23.02;8.77;;;;;;;;;;5055900;28;20052;-85
2022/12/02 05:13:14;;;;;;;16.83;8.73;;;;;;;;;;5055673;28;20478;-87
2022/12/02 05:15:39;;;;;;;18.20;8.48;;;;;;;;;;5052873;28;20029;-84
2022/12/02 05:18:07;;;;;;;23.02;9.57;;;;;;;;;;5047984;28;20108;-86
2022/12/02 05:20:33;;;;;;;19.38;8.73;;;;;;;;;;5052098;28;20052;-83
2022/12/02 05:22:58;;;;;;;26.85;11.05;;;;;;;;;;5034930;28;20032;-88
2022/12/02 05:25:23;;;;;;;23.60;9.85;;;;;;;;;;5033845;28;20075;-82
2022/12/02 05:27:54;;;;;;;18.92;9.07;;;;;;;;;;5048008;28;20044;-87
2022/12/02 05:30:19;;;;;;;17.08;7.80;;;;;;;;;;5051288;28;20033;-86
2022/12/02 05:32:47;;;;;;;20.52;8.88;;;;;;;;;;5039051;28;20024;-85
2022/12/02 05:35:13;;;;;;;18.15;8.07;;;;;;;;;;5057336;28;20463;-84
2022/12/02 05:37:38;;;;;;;27.70;8.07;;;;;;;;;;5041733;28;20037;-85
2022/12/02 05:40:04;;;;;;;13.65;7.47;;;;;;;;;;5048789;28;20032;-86
2022/12/02 05:42:30;;;;;;;17.23;8.23;;;;;;;;;;5048748;28;20029;-86
2022/12/02 05:44:59;;;;;;;16.88;8.68;;;;;;;;;;5041856;28;20037;-85
2022/12/02 05:47:27;;;;;;;19.02;8.93;;;;;;;;;;5037977;28;20032;-85
2022/12/02 05:49:53;;;;;;;17.90;8.60;;;;;;;;;;5037773;28;20033;-87
2022/12/02 05:52:24;;;;;;;20.83;8.80;;;;;;;;;;5042063;28;20033;-85
2022/12/02 05:55:00;;;;;;;18.15;8.20;;;;;;;;;;5040789;28;20033;-83
2022/12/02 05:57:30;;;;;;;22.13;8.88;;;;;;;;;;5038993;28;20112;-85
2022/12/02 06:00:07;;;;;;;21.88;8.98;;;;;;;;;;5040648;28;20078;-86
2022/12/02 06:02:39;;;;;;;15.13;7.30;;;;;;;;;;5041102;28;20032;-85
2022/12/02 06:05:14;;;;;;;16.38;8.07;;;;;;;;;;5040571;28;20044;-84
2022/12/02 06:07:39;;;;;;;16.42;8.02;;;;;;;;;;5044912;28;20036;-86
2022/12/02 06:10:26;;;;;;;15.82;7.97;;;;;;;;;;5048570;28;20031;-84
2022/12/02 06:12:55;;;;;;;23.55;9.68;;;;;;;;;;5043218;28;20033;-85
2022/12/02 06:15:20;;;;;;;24.63;8.45;;;;;;;;;;5038128;28;20025;-84
2022/12/02 06:17:45;;;;;;;19.73;9.35;;;;;;;;;;5042069;28;20104;-88
2022/12/02 06:20:24;;;;;;;22.80;9.38;;;;;;;;;;5039471;28;20057;-88
2022/12/02 06:22:49;;;;;;;19.98;9.63;;;;;;;;;;5039386;28;20420;-88
2022/12/02 06:25:28;;;;;;;24.17;8.82;;;;;;;;;;5012289;28;20033;-87
2022/12/02 06:28:35;;;;;;;18.02;8.38;;;;;;;;;;5041936;28;20049;-88
2022/12/02 06:31:16;;;;;;;18.77;8.98;;;;;;;;;;5043613;28;20118;-87
2022/12/02 06:33:44;;;;;;;16.60;7.55;;;;;;;;;;5035043;28;20115;-86
2022/12/02 06:36:14;;;;;;;17.17;9.18;;;;;;;;;;5038004;28;20032;-87
2022/12/02 06:39:08;;;;;;;20.92;9.45;;;;;;;;;;5038333;28;20029;-87
2022/12/02 06:41:39;;;;;;;21.17;8.57;;;;;;;;;;5043012;28;20032;-86
2022/12/02 06:47:19;;;;;;;27.40;9.55;;;;;;;;;;5045196;28;20124;-85
2022/12/02 06:49:44;;;;;;;20.23;9.00;;;;;;;;;;5042418;28;20025;-84
2022/12/02 06:52:20;;;;;;;20.50;9.32;;;;;;;;;;5042272;28;20051;-84
2022/12/02 06:54:46;;;;;;;17.48;8.70;;;;;;;;;;5040957;28;20018;-85
2022/12/02 06:57:15;;;;;;;20.35;8.95;;;;;;;;;;5042690;28;20036;-86
2022/12/02 06:59:45;;;;;;;24.75;9.73;;;;;;;;;;5040312;28;20106;-85
2022/12/02 07:02:21;;;;;;;17.25;8.45;;;;;;;;;;5042720;28;20068;-85
2022/12/02 07:04:49;;;;;;;15.95;9.00;;;;;;;;;;5021331;28;20033;-85
2022/12/02 07:07:21;;;;;;;17.45;8.63;;;;;;;;;;5031749;28;20025;-85
2022/12/02 07:09:54;;;;;;;;;;;;;;;;;;5040125;28;20029;-85
2022/12/02 07:12:23;;;;;;;25.25;8.35;;;;;;;;;;5043338;28;19919;-84
2022/12/02 07:14:52;;;;;;;18.92;8.43;;;;;;;;;;5043309;28;20120;-83
2022/12/02 07:17:41;;;;;;;20.77;9.50;;;;;;;;;;5039955;28;20033;-85
2022/12/02 07:20:27;;;;;;;21.15;8.63;;;;;;;;;;5024443;28;20116;-85
2022/12/02 07:23:04;;;;;;;23.10;9.05;;;;;;;;;;5040874;28;20093;-86
2022/12/02 07:25:37;;;;;;;24.90;9.70;;;;;;;;;;5043620;28;20029;-84
2022/12/02 07:28:27;;;;;;;22.27;9.52;;;;;;;;;;5043165;28;20033;-85
2022/12/02 07:31:11;;;;;;;22.20;8.65;;;;;;;;;;5043984;28;20222;-86
2022/12/02 07:33:37;;;;;;;24.60;8.95;;;;;;;;;;5045704;28;20115;-85
2022/12/02 07:36:12;;;;;;;18.75;9.15;;;;;;;;;;5045493;28;20055;-88
2022/12/02 07:38:37;;;;;;;23.58;9.88;;;;;;;;;;5049207;28;20021;-83
2022/12/02 07:41:03;;;;;;;21.30;9.73;;;;;;;;;;5032014;28;20380;-87
2022/12/02 07:43:29;;;;;;;22.33;10.40;;;;;;;;;;5045840;28;20040;-84
2022/12/02 07:45:54;;;;;;;22.17;9.77;;;;;;;;;;5023752;28;20429;-84
2022/12/02 07:48:19;;;;;;;23.08;10.23;;;;;;;;;;5026988;28;20222;-85
2022/12/02 07:50:47;;;;;;;19.63;9.60;;;;;;;;;;5025021;28;20022;-84
2022/12/02 07:53:13;;;;;;;30.65;12.32;;;;;;;;;;5028137;28;20186;-86
2022/12/02 07:55:38;;;;;;;24.05;10.25;;;;;;;;;;5033573;28;20910;-83
2022/12/02 07:58:03;;;;;;;28.15;10.38;;;;;;;;;;5021381;28;20033;-83
2022/12/02 08:00:32;;;;;;;25.58;9.77;;;;;;;;;;5025461;28;20036;-84
2022/12/02 08:02:58;;;;;;;27.15;9.98;;;;;;;;;;5030098;28;20013;-84
2022/12/02 08:05:23;;;;;;;30.33;10.35;;;;;;;;;;5034080;28;20032;-85
2022/12/02 08:07:52;;;;;;;18.77;9.18;;;;;;;;;;5033743;28;20075;-85
2022/12/02 08:10:17;;;;;;;19.83;10.02;;;;;;;;;;5026667;28;20021;-83
2022/12/02 08:12:45;;;;;;;27.52;10.63;;;;;;;;;;5031491;28;20083;-84
2022/12/02 08:15:12;;;;;;;28.63;11.32;;;;;;;;;;5027111;28;20021;-86
2022/12/02 08:17:37;;;;;;;26.98;11.02;;;;;;;;;;5025941;28;20064;-85
2022/12/02 08:20:08;;;;;;;25.73;10.23;;;;;;;;;;5006402;28;20044;-88
2022/12/02 08:22:34;;;;;;;29.92;10.43;;;;;;;;;;5018279;28;20131;-89
2022/12/02 08:24:59;;;;;;;32.38;9.90;;;;;;;;;;5020564;28;20155;-86
2022/12/02 08:27:28;;;;;;;22.08;10.40;;;;;;;;;;5011726;28;20033;-85
2022/12/02 08:29:53;;;;;;;21.63;8.48;;;;;;;;;;5066699;28;20044;-87
2022/12/02 08:32:19;;;;;;;22.15;9.95;;;;;;;;;;5062113;28;20403;-86
2022/12/02 08:34:45;;;;;;;19.83;8.40;;;;;;;;;;5066133;28;20551;-85
2022/12/02 08:37:11;;;;;;;18.35;8.75;;;;;;;;;;5060214;28;20070;-89
2022/12/02 08:39:37;;;;;;;23.85;9.25;;;;;;;;;;5056679;28;20017;-85
2022/12/02 08:42:02;;;;;;;17.73;9.38;;;;;;;;;;5059454;28;20042;-89
2022/12/02 08:44:28;;;;;;;30.17;9.77;;;;;;;;;;5051617;28;20039;-84
2022/12/02 08:46:54;;;;;;;19.88;9.10;;;;;;;;;;5071410;28;20032;-86
2022/12/02 08:49:19;;;;;;;25.23;9.13;;;;;;;;;;5070457;28;20036;-87
2022/12/02 08:51:48;;;;;;;22.90;9.18;;;;;;;;;;5050810;28;20127;-86
2022/12/02 08:54:14;;;;;;;22.15;9.18;;;;;;;;;;5049504;28;20020;-86
2022/12/02 08:56:40;;;;;;;19.88;8.88;;;;;;;;;;5047738;28;20115;-87
2022/12/02 08:59:05;;;;;;;18.23;7.93;;;;;;;;;;5050371;28;20063;-85
2022/12/02 09:01:31;;;;;;;18.15;8.80;;;;;;;;;;5048653;28;20024;-86
2022/12/02 09:03:56;;;;;;;15.10;6.88;;;;;;;;;;5068669;28;20021;-87
2022/12/02 09:06:21;;;;;;;15.82;7.15;;;;;;;;;;5048587;28;20048;-87
2022/12/02 09:08:49;;;;;;;22.40;8.45;;;;;;;;;;5069099;28;20027;-87
2022/12/02 09:11:15;;;;;;;17.92;8.10;;;;;;;;;;5062346;28;20082;-87
2022/12/02 09:13:40;;;;;;;18.05;6.95;;;;;;;;;;5052106;28;20028;-91
2022/12/02 09:16:06;;;;;;;14.38;8.10;;;;;;;;;;5054764;28;20013;-88
2022/12/02 09:18:31;;;;;;;20.83;7.93;;;;;;;;;;5061485;28;20043;-86
2022/12/02 09:20:59;;;;;;;11.82;6.72;;;;;;;;;;5068071;28;20032;-87
2022/12/02 09:23:24;;;;;;;16.08;7.35;;;;;;;;;;5066837;28;20031;-88
2022/12/02 09:25:50;;;;;;;16.38;7.80;;;;;;;;;;5064758;28;20028;-86
2022/12/02 09:28:15;;;;;;;13.30;6.95;;;;;;;;;;5070457;28;20063;-86
2022/12/02 09:30:40;;;;;;;19.45;7.78;;;;;;;;;;5067932;28;20080;-92
2022/12/02 09:33:06;;;;;;;18.50;8.75;;;;;;;;;;5040555;28;20033;-88
2022/12/02 09:35:31;;;;;;;15.73;7.82;;;;;;;;;;5028911;28;20495;-87
2022/12/02 09:37:59;;;;;;;16.73;7.68;;;;;;;;;;5049075;28;20124;-88
2022/12/02 09:40:28;;;;;;;15.82;7.55;;;;;;;;;;5052226;28;20020;-87
2022/12/02 09:42:53;;;;;;;18.73;7.05;;;;;;;;;;5047405;28;20033;-86
2022/12/02 09:45:19;;;;;;;13.63;6.30;;;;;;;;;;5036586;28;20025;-87
2022/12/02 09:47:44;;;;;;;13.68;6.40;;;;;;;;;;5037699;28;20020;-88
2022/12/02 09:50:13;;;;;;;15.50;7.20;;;;;;;;;;5039611;28;20028;-87
2022/12/02 09:52:42;;;;;;;11.40;6.70;;;;;;;;;;5063642;28;20024;-87
2022/12/02 09:55:16;;;;;;;16.70;7.13;;;;;;;;;;5047037;28;20017;-86
2022/12/02 09:57:42;;;;;;;14.45;7.22;;;;;;;;;;5061770;28;20047;-87
2022/12/02 10:00:13;;;;;;;15.80;7.43;;;;;;;;;;5057932;28;20036;-87
2022/12/02 10:02:42;;;;;;;14.05;6.18;;;;;;;;;;5045044;28;20390;-86
2022/12/02 10:05:15;;;;;;;16.58;6.95;;;;;;;;;;5048597;28;20027;-89
2022/12/02 10:07:41;;;;;;;13.90;6.05;;;;;;;;;;5069344;28;20533;-89
2022/12/02 10:10:11;;;;;;;14.77;6.00;;;;;;;;;;5065415;28;20028;-87
2022/12/02 10:12:36;;;;;;;14.07;5.60;;;;;;;;;;5044967;28;20360;-88
2022/12/02 10:15:02;;;;;;;15.60;5.85;;;;;;;;;;5051452;28;20028;-85
2022/12/02 10:17:28;;;;;;;14.98;6.53;;;;;;;;;;5071805;28;20024;-85
2022/12/02 10:19:53;;;;;;;14.23;5.97;;;;;;;;;;5055847;28;20020;-86
2022/12/02 10:22:20;;;;;;;14.95;6.70;;;;;;;;;;5075616;28;20078;-86
2022/12/02 10:24:47;;;;;;;13.00;5.13;;;;;;;;;;5057410;28;20111;-86
2022/12/02 10:27:24;;;;;;;8.43;5.20;;;;;;;;;;5053902;28;20451;-87
2022/12/02 10:29:50;;;;;;;10.20;5.43;;;;;;;;;;5073049;28;20040;-86
2022/12/02 10:32:28;;;;;;;10.60;5.40;;;;;;;;;;5058071;28;20020;-85
2022/12/02 10:35:08;;;;;;;13.60;5.78;;;;;;;;;;5077410;28;20021;-86
2022/12/02 10:37:34;;;;;;;11.88;5.55;;;;;;;;;;5074237;28;20088;-87
2022/12/02 10:40:14;;;;;;;12.80;5.47;;;;;;;;;;5050694;28;20120;-84
2022/12/02 10:42:41;;;;;;;11.30;5.68;;;;;;;;;;5043432;28;20037;-88
2022/12/02 10:45:15;;;;;;;9.15;5.07;;;;;;;;;;5071549;28;20020;-86
2022/12/02 10:47:40;;;;;;;7.75;4.38;;;;;;;;;;5068408;28;20024;-88
2022/12/02 10:50:21;;;;;;;7.80;4.38;;;;;;;;;;5048372;28;20592;-87
2022/12/02 10:52:54;;;;;;;9.57;4.55;;;;;;;;;;5057293;28;20044;-85
2022/12/02 10:55:20;;;;;;;9.02;4.22;;;;;;;;;;5054179;28;20024;-86
2022/12/02 10:57:47;;;;;;;8.35;4.05;;;;;;;;;;5044712;28;20192;-86
2022/12/02 11:00:16;;;;;;;7.25;4.10;;;;;;;;;;5065099;28;20059;-87
2022/12/02 11:02:48;;;;;;;7.13;4.53;;;;;;;;;;5073019;28;20020;-86
2022/12/02 11:05:25;;;;;;;8.52;3.60;;;;;;;;;;5071476;28;20135;-88
2022/12/02 11:07:57;;;;;;;7.82;4.20;;;;;;;;;;5056485;28;20889;-85
2022/12/02 11:10:32;;;;;;;7.70;4.25;;;;;;;;;;5053894;28;20135;-86
2022/12/02 11:13:03;;;;;;;6.65;3.75;;;;;;;;;;5055194;28;20069;-87
2022/12/02 11:15:47;;;;;;;10.90;5.68;;;;;;;;;;5064649;28;20406;-86
2022/12/02 11:18:22;;;;;;;10.98;4.43;;;;;;;;;;5059396;28;20028;-86
2022/12/02 11:20:52;;;;;;;7.68;4.22;;;;;;;;;;5067229;28;20020;-87
2022/12/02 11:23:19;;;;;;;9.07;4.65;;;;;;;;;;5050774;28;20465;-87
2022/12/02 11:25:47;;;;;;;9.20;4.28;;;;;;;;;;5070101;28;20032;-87
2022/12/02 11:28:28;;;;;;;7.43;4.07;;;;;;;;;;5066621;28;20031;-85
2022/12/02 11:31:09;;;;;;;7.75;4.10;;;;;;;;;;5064637;28;20022;-86
2022/12/02 11:33:46;;;;;;;8.20;4.68;;;;;;;;;;5059678;28;20040;-87
2022/12/02 11:36:13;;;;;;;7.22;4.63;;;;;;;;;;5047688;28;20020;-87
2022/12/02 11:38:52;;;;;;;9.20;4.25;;;;;;;;;;5063054;28;20017;-86
2022/12/02 11:41:22;;;;;;;8.65;4.20;;;;;;;;;;5057824;28;20477;-87
2022/12/02 11:43:47;;;;;;;10.07;4.68;;;;;;;;;;5064247;28;20013;-86
2022/12/02 11:46:18;;;;;;;8.60;4.85;;;;;;;;;;5064682;28;20039;-86
2022/12/02 11:48:55;;;;;;;7.55;4.60;;;;;;;;;;5067469;28;20029;-87
2022/12/02 11:51:38;;;;;;;10.50;4.40;;;;;;;;;;5071815;28;20020;-88
2022/12/02 11:54:10;;;;;;;8.52;3.55;;;;;;;;;;5051848;28;20397;-87
2022/12/02 11:56:37;;;;;;;6.97;3.58;;;;;;;;;;5037225;28;20040;-87
2022/12/02 11:59:18;;;;;;;6.95;4.20;;;;;;;;;;5042890;28;20493;-87
2022/12/02 12:01:43;;;;;;;7.22;4.18;;;;;;;;;;5062021;28;20050;-90
2022/12/02 12:04:26;;;;;;;6.18;3.92;;;;;;;;;;5085885;28;20514;-88
2022/12/02 12:06:56;;;;;;;6.32;3.47;;;;;;;;;;5076292;28;20027;-86
2022/12/02 12:09:22;;;;;;;9.10;4.63;;;;;;;;;;5045139;28;20032;-86
2022/12/02 12:12:06;;;;;;;6.53;4.07;;;;;;;;;;5047083;28;20028;-86
2022/12/02 12:14:32;;;;;;;8.57;4.60;;;;;;;;;;5061732;28;20020;-86
2022/12/02 12:17:29;;;;;;;12.60;4.78;;;;;;;;;;5047245;28;20101;-87
2022/12/02 12:19:54;;;;;;;5.88;3.35;;;;;;;;;;5058600;28;20441;-86
2022/12/02 12:22:28;;;;;;;9.75;4.22;;;;;;;;;;5064986;28;20112;-86
2022/12/02 12:24:54;;;;;;;5.43;3.83;;;;;;;;;;5048674;28;20025;-88
2022/12/02 12:27:35;;;;;;;7.55;3.97;;;;;;;;;;5047945;28;20046;-86
2022/12/02 12:30:00;;;;;;;6.07;3.65;;;;;;;;;;5041127;28;21561;-85
2022/12/02 12:32:26;;;;;;;5.72;3.67;;;;;;;;;;5047535;28;20030;-85
2022/12/02 12:34:51;;;;;;;6.85;3.25;;;;;;;;;;5040918;28;20017;-90
2022/12/02 12:37:16;;;;;;;6.53;3.38;;;;;;;;;;5054566;28;20027;-90
2022/12/02 12:39:47;;;;;;;8.43;4.05;;;;;;;;;;5069092;28;20016;-89
2022/12/02 12:42:20;;;;;;;7.93;3.55;;;;;;;;;;5055866;28;20062;-86
2022/12/02 12:44:46;;;;;;;8.25;4.63;;;;;;;;;;5060532;28;20539;-87
2022/12/02 12:47:12;;;;;;;4.13;3.28;;;;;;;;;;5046304;28;20028;-86
2022/12/02 12:49:37;;;;;;;5.93;4.30;;;;;;;;;;5052170;28;20032;-88
2022/12/02 12:52:03;;;;;;;8.10;3.60;;;;;;;;;;5037501;28;20044;-87
2022/12/02 12:54:28;;;;;;;6.43;4.03;;;;;;;;;;5038959;28;20036;-90
2022/12/02 12:56:55;;;;;;;3.40;3.05;;;;;;;;;;5034471;28;20056;-89
2022/12/02 12:59:20;;;;;;;8.30;3.60;;;;;;;;;;5034865;28;20486;-88
2022/12/02 13:01:46;;;;;;;5.82;3.63;;;;;;;;;;5036866;28;20482;-86
2022/12/02 13:04:12;;;;;;;7.93;4.00;;;;;;;;;;5050925;28;20482;-87
2022/12/02 13:06:38;;;;;;;9.88;4.63;;;;;;;;;;5034155;28;20173;-88
2022/12/02 13:09:07;;;;;;;7.38;3.53;;;;;;;;;;5050723;28;20024;-86
2022/12/02 13:11:33;;;;;;;7.63;4.18;;;;;;;;;;5030495;28;20138;-87
2022/12/02 13:13:58;;;;;;;7.38;3.92;;;;;;;;;;5013652;28;20080;-90
2022/12/02 13:16:23;;;;;;;6.75;3.90;;;;;;;;;;5029449;28;20434;-86
2022/12/02 13:18:49;;;;;;;9.48;4.13;;;;;;;;;;5032348;28;20051;-87
2022/12/02 13:21:14;;;;;;;5.65;3.13;;;;;;;;;;5037726;28;20078;-85
2022/12/02 13:23:39;;;;;;;5.32;4.18;;;;;;;;;;5038691;28;20074;-88
2022/12/02 13:26:05;;;;;;;9.35;3.67;;;;;;;;;;5030900;28;20021;-88
2022/12/02 13:28:30;;;;;;;7.85;4.35;;;;;;;;;;5027569;28;20028;-87
2022/12/02 13:30:56;;;;;;;5.72;3.20;;;;;;;;;;5030368;28;20036;-87
2022/12/02 13:33:21;;;;;;;9.30;6.05;;;;;;;;;;5031169;28;20466;-88
2022/12/02 13:35:46;;;;;;;7.13;4.88;;;;;;;;;;5022341;28;20017;-88
2022/12/02 13:38:12;;;;;;;8.65;4.10;;;;;;;;;;5015608;28;20033;-86
2022/12/02 13:40:37;;;;;;;7.93;4.50;;;;;;;;;;5019961;28;20130;-88
2022/12/02 13:43:03;;;;;;;11.30;5.32;;;;;;;;;;5018120;28;20037;-87
2022/12/02 13:45:29;;;;;;;8.07;4.05;;;;;;;;;;5038693;28;20028;-89
2022/12/02 13:47:54;;;;;;;5.93;3.75;;;;;;;;;;5019732;28;20782;-86
2022/12/02 13:50:20;;;;;;;9.38;4.32;;;;;;;;;;5032711;28;20035;-89
2022/12/02 13:52:45;;;;;;;13.40;5.00;;;;;;;;;;5013658;28;20070;-87
2022/12/02 13:55:10;;;;;;;9.18;4.47;;;;;;;;;;5005829;28;20379;-88
2022/12/02 13:57:36;;;;;;;6.93;4.03;;;;;;;;;;5016750;28;20097;-87
2022/12/02 14:00:01;;;;;;;6.50;3.75;;;;;;;;;;5035583;28;20029;-89
2022/12/02 14:02:27;;;;;;;8.23;3.65;;;;;;;;;;5015904;28;20053;-87
2022/12/02 14:04:52;;;;;;;5.20;3.80;;;;;;;;;;5017329;28;20059;-88
2022/12/02 14:07:17;;;;;;;9.07;4.43;;;;;;;;;;5011568;28;20058;-88
2022/12/02 14:09:43;;;;;;;9.88;4.80;;;;;;;;;;5017262;28;20060;-88
2022/12/02 14:12:08;;;;;;;9.02;4.13;;;;;;;;;;5034079;28;20048;-88
2022/12/02 14:14:34;;;;;;;6.65;4.18;;;;;;;;;;5010926;28;20035;-89
2022/12/02 14:16:59;;;;;;;7.55;4.47;;;;;;;;;;5035043;28;20624;-89
2022/12/02 14:19:24;;;;;;;7.88;4.63;;;;;;;;;;5030963;28;20031;-88
2022/12/02 14:21:50;;;;;;;6.25;3.58;;;;;;;;;;5008695;28;20033;-88
2022/12/02 14:24:15;;;;;;;12.07;4.55;;;;;;;;;;5022090;28;20119;-86
2022/12/02 14:26:41;;;;;;;5.55;3.88;;;;;;;;;;5033046;28;20036;-88
2022/12/02 14:29:06;;;;;;;7.95;4.40;;;;;;;;;;5037735;28;20052;-86
2022/12/02 14:31:31;;;;;;;7.65;4.53;;;;;;;;;;5015164;28;20036;-86
2022/12/02 14:33:57;;;;;;;7.82;4.32;;;;;;;;;;5021561;28;20340;-88
2022/12/02 14:36:22;;;;;;;7.13;3.67;;;;;;;;;;5035597;28;20020;-87
2022/12/02 14:38:48;;;;;;;11.98;4.15;;;;;;;;;;5027544;28;20401;-85
2022/12/02 14:41:13;;;;;;;9.52;3.17;;;;;;;;;;5028913;28;20029;-87
2022/12/02 14:43:39;;;;;;;9.93;4.78;;;;;;;;;;5002135;28;20044;-87